sensor_id;sensor_type;location;lat;lon;timestamp;pressure;altitude;pressure_sealevel;temperature;humidity
70954;BME280;58618;47.490;8.736;2024-02-26T00:02:16;94590.78;;;4.34;100.00
70954;BME280;58618;47.490;8.736;2024-02-26T00:05:05;94600.28;;;4.47;100.00
70954;BME280;58618;47.490;8.736;2024-02-26T00:07:52;94594.91;;;4.62;100.00
70954;BME280;58618;47.490;8.736;2024-02-26T00:10:39;94603.16;;;4.59;100.00
70954;BME280;58618;47.490;8.736;2024-02-26T00:13:27;94593.88;;;4.63;100.00
70954;BME280;58618;47.490;8.736;2024-02-26T00:16:16;94603.16;;;4.73;100.00
70954;BME280;58618;47.490;8.736;2024-02-26T00:19:03;94597.56;;;4.57;100.00
70954;BME280;58618;47.490;8.736;2024-02-26T00:21:51;94596.38;;;4.50;100.00
70954;BME280;58618;47.490;8.736;2024-02-26T00:24:40;94607.44;;;4.45;100.00
70954;BME280;58618;47.490;8.736;2024-02-26T00:27:27;94597.63;;;4.52;100.00
70954;BME280;58618;47.490;8.736;2024-02-26T00:30:15;94602.97;;;4.70;100.00
70954;BME280;58618;47.490;8.736;2024-02-26T00:33:04;94601.63;;;4.58;100.00
70954;BME280;58618;47.490;8.736;2024-02-26T00:35:51;94599.69;;;4.50;100.00
70954;BME280;58618;47.490;8.736;2024-02-26T00:38:38;94600.34;;;4.42;100.00
70954;BME280;58618;47.490;8.736;2024-02-26T00:41:26;94599.16;;;4.53;100.00
70954;BME280;58618;47.490;8.736;2024-02-26T00:44:13;94601.72;;;4.53;100.00
70954;BME280;58618;47.490;8.736;2024-02-26T00:47:01;94600.69;;;4.54;100.00
70954;BME280;58618;47.490;8.736;2024-02-26T00:49:49;94599.44;;;4.65;100.00
70954;BME280;58618;47.490;8.736;2024-02-26T00:52:37;94610.16;;;4.67;100.00
70954;BME280;58618;47.490;8.736;2024-02-26T00:55:24;94607.16;;;4.79;100.00
70954;BME280;58618;47.490;8.736;2024-02-26T00:58:11;94597.47;;;4.62;100.00
70954;BME280;58618;47.490;8.736;2024-02-26T01:00:59;94613.53;;;4.49;100.00
70954;BME280;58618;47.490;8.736;2024-02-26T01:03:46;94604.03;;;4.50;100.00
70954;BME280;58618;47.490;8.736;2024-02-26T01:06:35;94611.44;;;4.51;100.00
70954;BME280;58618;47.490;8.736;2024-02-26T01:09:22;94611.66;;;4.68;100.00
70954;BME280;58618;47.490;8.736;2024-02-26T01:12:09;94618.91;;;4.61;100.00
70954;BME280;58618;47.490;8.736;2024-02-26T01:14:57;94613.56;;;4.44;100.00
70954;BME280;58618;47.490;8.736;2024-02-26T01:17:44;94616.25;;;4.53;100.00
70954;BME280;58618;47.490;8.736;2024-02-26T01:20:31;94623.09;;;4.57;100.00
70954;BME280;58618;47.490;8.736;2024-02-26T01:23:20;94622.06;;;4.58;100.00
70954;BME280;58618;47.490;8.736;2024-02-26T01:26:08;94622.28;;;4.43;100.00
70954;BME280;58618;47.490;8.736;2024-02-26T01:28:55;94619.25;;;4.41;100.00
70954;BME280;58618;47.490;8.736;2024-02-26T01:31:42;94626.56;;;4.29;100.00
70954;BME280;58618;47.490;8.736;2024-02-26T01:34:30;94616.09;;;4.31;100.00
70954;BME280;58618;47.490;8.736;2024-02-26T01:37:17;94620.09;;;4.37;100.00
70954;BME280;58618;47.490;8.736;2024-02-26T01:40:07;94628.44;;;4.42;100.00
70954;BME280;58618;47.490;8.736;2024-02-26T01:42:55;94613.13;;;4.42;100.00
70954;BME280;58618;47.490;8.736;2024-02-26T01:45:42;94622.91;;;4.54;100.00
70954;BME280;58618;47.490;8.736;2024-02-26T01:48:30;94626.50;;;4.34;100.00
70954;BME280;58618;47.490;8.736;2024-02-26T01:51:17;94623.00;;;4.30;100.00
70954;BME280;58618;47.490;8.736;2024-02-26T01:54:05;94609.81;;;4.23;100.00
70954;BME280;58618;47.490;8.736;2024-02-26T01:56:55;94625.38;;;4.40;100.00
70954;BME280;58618;47.490;8.736;2024-02-26T01:59:42;94621.81;;;4.41;100.00
70954;BME280;58618;47.490;8.736;2024-02-26T02:02:30;94628.03;;;4.35;100.00
70954;BME280;58618;47.490;8.736;2024-02-26T02:05:18;94617.28;;;4.38;100.00
70954;BME280;58618;47.490;8.736;2024-02-26T02:08:07;94624.69;;;4.53;100.00
70954;BME280;58618;47.490;8.736;2024-02-26T02:10:56;94622.97;;;4.49;100.00
70954;BME280;58618;47.490;8.736;2024-02-26T02:13:45;94629.72;;;4.40;100.00
70954;BME280;58618;47.490;8.736;2024-02-26T02:16:32;94588.63;;;4.09;100.00
70954;BME280;58618;47.490;8.736;2024-02-26T02:19:20;94620.84;;;4.37;100.00
70954;BME280;58618;47.490;8.736;2024-02-26T02:22:08;94620.28;;;4.40;100.00
70954;BME280;58618;47.490;8.736;2024-02-26T02:24:56;94611.44;;;4.51;100.00
70954;BME280;58618;47.490;8.736;2024-02-26T02:27:43;94610.72;;;4.64;100.00
70954;BME280;58618;47.490;8.736;2024-02-26T02:30:31;94609.69;;;4.33;100.00
70954;BME280;58618;47.490;8.736;2024-02-26T02:33:20;94599.50;;;4.33;100.00
70954;BME280;58618;47.490;8.736;2024-02-26T02:36:08;94605.69;;;4.27;100.00
70954;BME280;58618;47.490;8.736;2024-02-26T02:38:57;94605.69;;;4.27;100.00
70954;BME280;58618;47.490;8.736;2024-02-26T02:41:44;94605.53;;;4.37;100.00
70954;BME280;58618;47.490;8.736;2024-02-26T02:44:32;94602.75;;;4.52;100.00
70954;BME280;58618;47.490;8.736;2024-02-26T02:47:19;94608.69;;;4.48;100.00
70954;BME280;58618;47.490;8.736;2024-02-26T02:50:07;94608.41;;;4.49;100.00
70954;BME280;58618;47.490;8.736;2024-02-26T02:52:54;94595.88;;;4.34;100.00
70954;BME280;58618;47.490;8.736;2024-02-26T02:55:43;94590.00;;;4.34;100.00
70954;BME280;58618;47.490;8.736;2024-02-26T02:58:30;94586.25;;;4.31;100.00
70954;BME280;58618;47.490;8.736;2024-02-26T03:01:18;94588.53;;;4.46;100.00
70954;BME280;58618;47.490;8.736;2024-02-26T03:04:05;94576.94;;;4.67;100.00
70954;BME280;58618;47.490;8.736;2024-02-26T03:06:53;94586.53;;;4.76;100.00
70954;BME280;58618;47.490;8.736;2024-02-26T03:09:40;94581.03;;;4.68;100.00
70954;BME280;58618;47.490;8.736;2024-02-26T03:12:29;94576.47;;;4.65;100.00
70954;BME280;58618;47.490;8.736;2024-02-26T03:15:17;94586.50;;;4.62;100.00
70954;BME280;58618;47.490;8.736;2024-02-26T03:18:04;94562.09;;;4.56;100.00
70954;BME280;58618;47.490;8.736;2024-02-26T03:20:51;94554.88;;;4.44;100.00
70954;BME280;58618;47.490;8.736;2024-02-26T03:23:39;94540.31;;;4.31;100.00
70954;BME280;58618;47.490;8.736;2024-02-26T03:26:26;94541.91;;;4.27;100.00
70954;BME280;58618;47.490;8.736;2024-02-26T03:29:15;94544.28;;;4.37;100.00
70954;BME280;58618;47.490;8.736;2024-02-26T03:32:02;94535.69;;;4.33;100.00
70954;BME280;58618;47.490;8.736;2024-02-26T03:34:50;94556.41;;;4.45;100.00
70954;BME280;58618;47.490;8.736;2024-02-26T03:37:40;94545.25;;;4.41;100.00
70954;BME280;58618;47.490;8.736;2024-02-26T03:40:27;94539.53;;;4.17;100.00
70954;BME280;58618;47.490;8.736;2024-02-26T03:43:14;94530.97;;;4.08;100.00
70954;BME280;58618;47.490;8.736;2024-02-26T03:46:03;94528.16;;;4.09;100.00
70954;BME280;58618;47.490;8.736;2024-02-26T03:48:50;94536.97;;;4.17;100.00
70954;BME280;58618;47.490;8.736;2024-02-26T03:51:38;94550.75;;;4.16;100.00
70954;BME280;58618;47.490;8.736;2024-02-26T03:54:25;94565.41;;;4.24;100.00
70954;BME280;58618;47.490;8.736;2024-02-26T03:57:12;94556.03;;;4.38;100.00
70954;BME280;58618;47.490;8.736;2024-02-26T03:59:59;94554.06;;;4.49;100.00
70954;BME280;58618;47.490;8.736;2024-02-26T04:02:48;94551.41;;;4.54;100.00
70954;BME280;58618;47.490;8.736;2024-02-26T04:05:35;94557.72;;;4.43;100.00
70954;BME280;58618;47.490;8.736;2024-02-26T04:08:23;94567.63;;;4.44;100.00
70954;BME280;58618;47.490;8.736;2024-02-26T04:11:10;94579.44;;;4.40;100.00
70954;BME280;58618;47.490;8.736;2024-02-26T04:13:58;94585.91;;;4.51;100.00
70954;BME280;58618;47.490;8.736;2024-02-26T04:16:45;94596.13;;;4.51;100.00
70954;BME280;58618;47.490;8.736;2024-02-26T04:19:35;94610.88;;;4.54;100.00
70954;BME280;58618;47.490;8.736;2024-02-26T04:22:22;94615.59;;;4.47;100.00
70954;BME280;58618;47.490;8.736;2024-02-26T04:25:10;94616.13;;;4.44;100.00
70954;BME280;58618;47.490;8.736;2024-02-26T04:27:57;94633.97;;;4.63;100.00
70954;BME280;58618;47.490;8.736;2024-02-26T04:30:44;94633.28;;;4.57;100.00
70954;BME280;58618;47.490;8.736;2024-02-26T04:33:33;94637.16;;;4.55;100.00
70954;BME280;58618;47.490;8.736;2024-02-26T04:36:22;94636.56;;;4.44;100.00
70954;BME280;58618;47.490;8.736;2024-02-26T04:39:11;94634.84;;;4.40;100.00
70954;BME280;58618;47.490;8.736;2024-02-26T04:41:59;94645.41;;;4.33;100.00
70954;BME280;58618;47.490;8.736;2024-02-26T04:44:49;94651.47;;;4.37;100.00
70954;BME280;58618;47.490;8.736;2024-02-26T04:47:37;94655.81;;;4.37;100.00
70954;BME280;58618;47.490;8.736;2024-02-26T04:50:24;94656.59;;;4.37;100.00
70954;BME280;58618;47.490;8.736;2024-02-26T04:53:13;94662.22;;;4.34;100.00
70954;BME280;58618;47.490;8.736;2024-02-26T04:56:00;94654.88;;;4.33;100.00
70954;BME280;58618;47.490;8.736;2024-02-26T04:58:47;94652.25;;;4.38;100.00
70954;BME280;58618;47.490;8.736;2024-02-26T05:01:35;94641.97;;;4.24;100.00
70954;BME280;58618;47.490;8.736;2024-02-26T05:04:22;94643.97;;;4.27;100.00
70954;BME280;58618;47.490;8.736;2024-02-26T05:07:09;94633.50;;;4.10;100.00
70954;BME280;58618;47.490;8.736;2024-02-26T05:09:59;94653.84;;;4.15;100.00
70954;BME280;58618;47.490;8.736;2024-02-26T05:12:47;94657.34;;;4.38;100.00
70954;BME280;58618;47.490;8.736;2024-02-26T05:15:34;94655.97;;;4.27;100.00
70954;BME280;58618;47.490;8.736;2024-02-26T05:18:22;94654.25;;;4.22;100.00
70954;BME280;58618;47.490;8.736;2024-02-26T05:21:09;94651.75;;;4.36;100.00
70954;BME280;58618;47.490;8.736;2024-02-26T05:23:57;94652.59;;;4.31;100.00
70954;BME280;58618;47.490;8.736;2024-02-26T05:26:46;94647.13;;;4.19;100.00
70954;BME280;58618;47.490;8.736;2024-02-26T05:29:33;94656.78;;;4.41;100.00
70954;BME280;58618;47.490;8.736;2024-02-26T05:32:20;94653.13;;;4.47;100.00
70954;BME280;58618;47.490;8.736;2024-02-26T05:35:07;94652.59;;;4.31;100.00
70954;BME280;58618;47.490;8.736;2024-02-26T05:37:55;94659.00;;;4.29;100.00
70954;BME280;58618;47.490;8.736;2024-02-26T05:40:42;94662.72;;;4.36;100.00
70954;BME280;58618;47.490;8.736;2024-02-26T05:43:33;94663.34;;;4.28;100.00
70954;BME280;58618;47.490;8.736;2024-02-26T05:46:21;94655.03;;;4.22;100.00
70954;BME280;58618;47.490;8.736;2024-02-26T05:49:08;94647.00;;;4.29;100.00
70954;BME280;58618;47.490;8.736;2024-02-26T05:51:56;94635.91;;;4.39;100.00
70954;BME280;58618;47.490;8.736;2024-02-26T05:54:43;94647.44;;;4.50;100.00
70954;BME280;58618;47.490;8.736;2024-02-26T05:57:30;94653.22;;;4.55;100.00
70954;BME280;58618;47.490;8.736;2024-02-26T06:00:20;94663.59;;;4.45;100.00
70954;BME280;58618;47.490;8.736;2024-02-26T06:03:07;94642.78;;;4.38;100.00
70954;BME280;58618;47.490;8.736;2024-02-26T06:05:54;94663.00;;;4.35;100.00
70954;BME280;58618;47.490;8.736;2024-02-26T06:08:42;94673.63;;;4.42;100.00
70954;BME280;58618;47.490;8.736;2024-02-26T06:11:29;94672.16;;;4.54;100.00
70954;BME280;58618;47.490;8.736;2024-02-26T06:14:16;94668.31;;;4.38;100.00
70954;BME280;58618;47.490;8.736;2024-02-26T06:17:05;94665.97;;;4.23;100.00
70954;BME280;58618;47.490;8.736;2024-02-26T06:19:53;94677.69;;;4.24;100.00
70954;BME280;58618;47.490;8.736;2024-02-26T06:22:40;94666.22;;;4.40;100.00
70954;BME280;58618;47.490;8.736;2024-02-26T06:25:28;94664.69;;;4.39;100.00
70954;BME280;58618;47.490;8.736;2024-02-26T06:28:16;94669.53;;;4.59;100.00
70954;BME280;58618;47.490;8.736;2024-02-26T06:31:04;94668.16;;;4.48;100.00
70954;BME280;58618;47.490;8.736;2024-02-26T06:33:53;94658.38;;;4.37;100.00
70954;BME280;58618;47.490;8.736;2024-02-26T06:36:41;94657.09;;;4.53;100.00
70954;BME280;58618;47.490;8.736;2024-02-26T06:39:28;94648.84;;;4.42;100.00
70954;BME280;58618;47.490;8.736;2024-02-26T06:42:16;94656.69;;;4.46;100.00
70954;BME280;58618;47.490;8.736;2024-02-26T06:45:04;94642.25;;;4.55;100.00
70954;BME280;58618;47.490;8.736;2024-02-26T06:47:53;94654.81;;;4.70;100.00
70954;BME280;58618;47.490;8.736;2024-02-26T06:50:43;94658.28;;;5.06;100.00
70954;BME280;58618;47.490;8.736;2024-02-26T06:53:30;94661.88;;;5.19;100.00
70954;BME280;58618;47.490;8.736;2024-02-26T06:56:17;94667.44;;;5.89;100.00
70954;BME280;58618;47.490;8.736;2024-02-26T06:59:05;94661.59;;;5.75;100.00
70954;BME280;58618;47.490;8.736;2024-02-26T07:01:53;94661.84;;;5.74;100.00
70954;BME280;58618;47.490;8.736;2024-02-26T07:04:41;94667.63;;;5.79;100.00
70954;BME280;58618;47.490;8.736;2024-02-26T07:07:30;94676.06;;;5.93;100.00
70954;BME280;58618;47.490;8.736;2024-02-26T07:10:18;94675.94;;;6.12;100.00
70954;BME280;58618;47.490;8.736;2024-02-26T07:13:05;94672.81;;;6.38;100.00
70954;BME280;58618;47.490;8.736;2024-02-26T07:15:52;94689.59;;;6.44;100.00
70954;BME280;58618;47.490;8.736;2024-02-26T07:18:40;94689.41;;;6.40;100.00
70954;BME280;58618;47.490;8.736;2024-02-26T07:21:27;94693.06;;;6.25;100.00
70954;BME280;58618;47.490;8.736;2024-02-26T07:24:16;94698.22;;;5.98;100.00
70954;BME280;58618;47.490;8.736;2024-02-26T07:27:03;94694.31;;;6.14;100.00
70954;BME280;58618;47.490;8.736;2024-02-26T07:29:51;94701.78;;;6.24;100.00
70954;BME280;58618;47.490;8.736;2024-02-26T07:32:38;94697.09;;;6.04;100.00
70954;BME280;58618;47.490;8.736;2024-02-26T07:35:25;94703.72;;;6.05;100.00
70954;BME280;58618;47.490;8.736;2024-02-26T07:38:14;94705.25;;;6.06;100.00
70954;BME280;58618;47.490;8.736;2024-02-26T07:41:03;94699.53;;;6.09;100.00
70954;BME280;58618;47.490;8.736;2024-02-26T07:43:50;94699.47;;;6.36;100.00
70954;BME280;58618;47.490;8.736;2024-02-26T07:46:37;94700.78;;;6.92;100.00
70954;BME280;58618;47.490;8.736;2024-02-26T07:49:25;94694.69;;;6.88;100.00
70954;BME280;58618;47.490;8.736;2024-02-26T07:52:12;94701.69;;;6.96;100.00
70954;BME280;58618;47.490;8.736;2024-02-26T07:54:59;94698.84;;;7.29;100.00
70954;BME280;58618;47.490;8.736;2024-02-26T07:57:48;94693.47;;;7.39;100.00
70954;BME280;58618;47.490;8.736;2024-02-26T08:00:35;94688.59;;;7.29;100.00
70954;BME280;58618;47.490;8.736;2024-02-26T08:03:23;94694.72;;;7.50;100.00
70954;BME280;58618;47.490;8.736;2024-02-26T08:06:10;94699.69;;;8.89;100.00
70954;BME280;58618;47.490;8.736;2024-02-26T08:08:57;94694.81;;;10.60;100.00
70954;BME280;58618;47.490;8.736;2024-02-26T08:11:45;94685.00;;;11.43;100.00
70954;BME280;58618;47.490;8.736;2024-02-26T08:14:33;94694.50;;;11.64;97.68
70954;BME280;58618;47.490;8.736;2024-02-26T08:17:20;94694.84;;;12.51;84.79
70954;BME280;58618;47.490;8.736;2024-02-26T08:20:09;94702.84;;;12.46;80.93
70954;BME280;58618;47.490;8.736;2024-02-26T08:22:56;94699.66;;;12.12;89.32
70954;BME280;58618;47.490;8.736;2024-02-26T08:25:43;94694.63;;;12.84;81.93
70954;BME280;58618;47.490;8.736;2024-02-26T08:28:31;94702.03;;;11.57;87.57
70954;BME280;58618;47.490;8.736;2024-02-26T08:31:19;94697.69;;;12.21;84.80
70954;BME280;58618;47.490;8.736;2024-02-26T08:34:07;94698.00;;;12.32;82.03
70954;BME280;58618;47.490;8.736;2024-02-26T08:36:54;94701.88;;;12.38;85.38
70954;BME280;58618;47.490;8.736;2024-02-26T08:39:41;94715.38;;;12.19;81.90
70954;BME280;58618;47.490;8.736;2024-02-26T08:42:29;94711.22;;;12.83;77.42
70954;BME280;58618;47.490;8.736;2024-02-26T08:45:16;94701.81;;;13.49;71.03
70954;BME280;58618;47.490;8.736;2024-02-26T08:48:06;94693.75;;;13.07;74.24
70954;BME280;58618;47.490;8.736;2024-02-26T08:50:53;94700.59;;;13.00;75.39
70954;BME280;58618;47.490;8.736;2024-02-26T08:53:41;94701.50;;;13.51;71.26
70954;BME280;58618;47.490;8.736;2024-02-26T08:56:28;94713.66;;;12.91;76.81
70954;BME280;58618;47.490;8.736;2024-02-26T08:59:15;94725.19;;;12.66;80.87
70954;BME280;58618;47.490;8.736;2024-02-26T09:02:08;94714.66;;;11.95;82.84
70954;BME280;58618;47.490;8.736;2024-02-26T09:04:57;94729.16;;;11.63;87.86
70954;BME280;58618;47.490;8.736;2024-02-26T09:07:44;94729.97;;;11.42;85.98
70954;BME280;58618;47.490;8.736;2024-02-26T09:10:32;94709.84;;;10.91;84.21
70954;BME280;58618;47.490;8.736;2024-02-26T09:13:19;94739.84;;;11.73;79.00
70954;BME280;58618;47.490;8.736;2024-02-26T09:16:07;94726.50;;;11.26;80.18
70954;BME280;58618;47.490;8.736;2024-02-26T09:18:54;94723.72;;;10.66;83.36
70954;BME280;58618;47.490;8.736;2024-02-26T09:21:43;94715.44;;;10.39;87.21
70954;BME280;58618;47.490;8.736;2024-02-26T09:24:31;94719.16;;;11.04;87.82
70954;BME280;58618;47.490;8.736;2024-02-26T09:27:18;94730.56;;;11.15;86.38
70954;BME280;58618;47.490;8.736;2024-02-26T09:30:07;94721.75;;;11.16;87.04
70954;BME280;58618;47.490;8.736;2024-02-26T09:32:54;94719.66;;;10.97;90.60
70954;BME280;58618;47.490;8.736;2024-02-26T09:35:42;94711.84;;;10.52;87.52
70954;BME280;58618;47.490;8.736;2024-02-26T09:38:30;94712.94;;;10.31;86.89
70954;BME280;58618;47.490;8.736;2024-02-26T09:41:23;94703.88;;;10.45;84.56
70954;BME280;58618;47.490;8.736;2024-02-26T09:44:10;94701.34;;;10.16;89.37
70954;BME280;58618;47.490;8.736;2024-02-26T09:46:58;94709.56;;;10.01;90.35
70954;BME280;58618;47.490;8.736;2024-02-26T09:49:46;94703.53;;;9.97;91.92
70954;BME280;58618;47.490;8.736;2024-02-26T09:52:37;94696.97;;;9.79;90.71
70954;BME280;58618;47.490;8.736;2024-02-26T09:55:26;94702.50;;;9.98;91.94
70954;BME280;58618;47.490;8.736;2024-02-26T09:58:14;94714.19;;;10.45;87.74
70954;BME280;58618;47.490;8.736;2024-02-26T10:01:08;94713.03;;;10.76;85.47
70954;BME280;58618;47.490;8.736;2024-02-26T10:03:57;94712.75;;;10.89;85.33
70954;BME280;58618;47.490;8.736;2024-02-26T10:06:45;94714.19;;;11.11;80.65
70954;BME280;58618;47.490;8.736;2024-02-26T10:09:33;94720.47;;;11.22;81.32
70954;BME280;58618;47.490;8.736;2024-02-26T10:12:23;94717.44;;;10.34;88.34
70954;BME280;58618;47.490;8.736;2024-02-26T10:15:11;94721.59;;;10.68;85.90
70954;BME280;58618;47.490;8.736;2024-02-26T10:17:59;94739.78;;;11.04;81.83
70954;BME280;58618;47.490;8.736;2024-02-26T10:20:59;94737.78;;;10.68;82.21
70954;BME280;58618;47.490;8.736;2024-02-26T10:23:47;94737.69;;;10.65;80.89
70954;BME280;58618;47.490;8.736;2024-02-26T10:26:35;94731.34;;;10.12;78.73
70954;BME280;58618;47.490;8.736;2024-02-26T10:29:25;94736.94;;;10.43;77.27
70954;BME280;58618;47.490;8.736;2024-02-26T10:32:12;94730.63;;;10.32;78.45
70954;BME280;58618;47.490;8.736;2024-02-26T10:35:00;94733.22;;;10.03;80.95
70954;BME280;58618;47.490;8.736;2024-02-26T10:37:47;94736.22;;;10.05;81.04
70954;BME280;58618;47.490;8.736;2024-02-26T10:40:35;94748.13;;;9.89;84.45
70954;BME280;58618;47.490;8.736;2024-02-26T10:43:22;94744.75;;;9.97;85.97
70954;BME280;58618;47.490;8.736;2024-02-26T10:46:11;94748.22;;;9.71;87.32
70954;BME280;58618;47.490;8.736;2024-02-26T10:48:58;94731.03;;;9.46;88.94
70954;BME280;58618;47.490;8.736;2024-02-26T10:51:49;94750.69;;;9.89;87.28
70954;BME280;58618;47.490;8.736;2024-02-26T10:54:41;94745.63;;;10.01;87.47
70954;BME280;58618;47.490;8.736;2024-02-26T10:57:33;94749.56;;;10.07;91.40
70954;BME280;58618;47.490;8.736;2024-02-26T11:00:20;94754.00;;;10.27;87.50
70954;BME280;58618;47.490;8.736;2024-02-26T11:03:10;94757.91;;;10.33;88.77
70954;BME280;58618;47.490;8.736;2024-02-26T11:05:58;94757.31;;;10.36;92.18
70954;BME280;58618;47.490;8.736;2024-02-26T11:08:49;94762.31;;;10.53;89.39
70954;BME280;58618;47.490;8.736;2024-02-26T11:11:36;94764.47;;;10.31;85.45
70954;BME280;58618;47.490;8.736;2024-02-26T11:14:24;94748.81;;;10.36;86.95
70954;BME280;58618;47.490;8.736;2024-02-26T11:17:12;94758.38;;;10.35;85.46
70954;BME280;58618;47.490;8.736;2024-02-26T11:20:01;94761.09;;;10.01;89.01
70954;BME280;58618;47.490;8.736;2024-02-26T11:22:49;94752.28;;;10.61;85.19
70954;BME280;58618;47.490;8.736;2024-02-26T11:25:36;94753.53;;;10.54;84.90
70954;BME280;58618;47.490;8.736;2024-02-26T11:28:26;94753.63;;;10.79;80.56
70954;BME280;58618;47.490;8.736;2024-02-26T11:31:14;94748.84;;;10.89;80.77
70954;BME280;58618;47.490;8.736;2024-02-26T11:34:02;94758.56;;;10.92;81.54
70954;BME280;58618;47.490;8.736;2024-02-26T11:36:51;94756.56;;;10.77;80.27
70954;BME280;58618;47.490;8.736;2024-02-26T11:39:40;94753.53;;;10.54;85.65
70954;BME280;58618;47.490;8.736;2024-02-26T11:42:27;94760.84;;;11.06;81.27
70954;BME280;58618;47.490;8.736;2024-02-26T11:45:49;94755.41;;;10.87;79.41
70954;BME280;58618;47.490;8.736;2024-02-26T11:48:38;94757.69;;;10.68;82.23
70954;BME280;58618;47.490;8.736;2024-02-26T11:51:26;94763.28;;;10.70;82.46
70954;BME280;58618;47.490;8.736;2024-02-26T11:54:38;94757.03;;;10.91;79.81
70954;BME280;58618;47.490;8.736;2024-02-26T11:57:27;94761.06;;;10.59;81.66
70954;BME280;58618;47.490;8.736;2024-02-26T12:00:15;94761.75;;;10.69;77.99
70954;BME280;58618;47.490;8.736;2024-02-26T12:03:04;94764.94;;;11.07;79.56
70954;BME280;58618;47.490;8.736;2024-02-26T12:05:54;94770.34;;;11.14;78.60
70954;BME280;58618;47.490;8.736;2024-02-26T12:08:44;94763.91;;;11.20;76.96
70954;BME280;58618;47.490;8.736;2024-02-26T12:11:33;94758.91;;;11.48;75.06
70954;BME280;58618;47.490;8.736;2024-02-26T12:14:25;94762.69;;;11.51;75.01
70954;BME280;58618;47.490;8.736;2024-02-26T12:17:19;94765.53;;;11.70;73.35
70954;BME280;58618;47.490;8.736;2024-02-26T12:20:11;94765.69;;;11.73;72.20
70954;BME280;58618;47.490;8.736;2024-02-26T12:22:59;94773.03;;;11.51;73.78
70954;BME280;58618;47.490;8.736;2024-02-26T12:25:47;94762.00;;;11.29;75.14
70954;BME280;58618;47.490;8.736;2024-02-26T12:28:36;94762.28;;;11.61;74.01
70954;BME280;58618;47.490;8.736;2024-02-26T12:31:23;94759.66;;;11.36;76.16
70954;BME280;58618;47.490;8.736;2024-02-26T12:34:10;94753.81;;;11.15;75.37
70954;BME280;58618;47.490;8.736;2024-02-26T12:36:58;94752.94;;;10.90;76.48
70954;BME280;58618;47.490;8.736;2024-02-26T12:39:45;94764.78;;;10.91;77.07
70954;BME280;58618;47.490;8.736;2024-02-26T12:42:33;94755.09;;;11.21;75.92
70954;BME280;58618;47.490;8.736;2024-02-26T12:45:26;94762.25;;;11.49;73.85
70954;BME280;58618;47.490;8.736;2024-02-26T12:48:14;94756.84;;;11.87;71.63
70954;BME280;58618;47.490;8.736;2024-02-26T12:51:01;94752.94;;;11.68;73.15
70954;BME280;58618;47.490;8.736;2024-02-26T12:53:49;94758.81;;;11.44;76.29
70954;BME280;58618;47.490;8.736;2024-02-26T12:56:38;94755.78;;;11.30;76.02
70954;BME280;58618;47.490;8.736;2024-02-26T12:59:25;94743.34;;;11.69;73.61
70954;BME280;58618;47.490;8.736;2024-02-26T13:02:14;94753.31;;;11.79;73.61
70954;BME280;58618;47.490;8.736;2024-02-26T13:05:03;94743.16;;;11.74;72.21
70954;BME280;58618;47.490;8.736;2024-02-26T13:07:51;94743.13;;;11.50;73.16
70954;BME280;58618;47.490;8.736;2024-02-26T13:10:39;94735.56;;;11.44;73.66
70954;BME280;58618;47.490;8.736;2024-02-26T13:13:26;94730.63;;;11.39;74.74
70954;BME280;58618;47.490;8.736;2024-02-26T13:16:14;94732.88;;;11.41;74.01
70954;BME280;58618;47.490;8.736;2024-02-26T13:19:09;94737.56;;;11.72;68.95
70954;BME280;58618;47.490;8.736;2024-02-26T13:22:03;94737.59;;;11.84;65.54
70954;BME280;58618;47.490;8.736;2024-02-26T13:24:54;94743.06;;;11.25;69.32
70954;BME280;58618;47.490;8.736;2024-02-26T13:27:42;94755.97;;;11.25;68.53
70954;BME280;58618;47.490;8.736;2024-02-26T13:30:29;94750.41;;;11.48;68.22
70954;BME280;58618;47.490;8.736;2024-02-26T13:33:16;94737.91;;;11.37;68.49
70954;BME280;58618;47.490;8.736;2024-02-26T13:36:06;94733.00;;;11.69;67.75
70954;BME280;58618;47.490;8.736;2024-02-26T13:38:54;94731.75;;;11.75;66.73
70954;BME280;58618;47.490;8.736;2024-02-26T13:41:42;94736.22;;;11.54;67.34
70954;BME280;58618;47.490;8.736;2024-02-26T13:44:30;94732.28;;;11.68;66.27
70954;BME280;58618;47.490;8.736;2024-02-26T13:47:17;94734.50;;;11.46;67.97
70954;BME280;58618;47.490;8.736;2024-02-26T13:50:05;94726.78;;;11.70;65.93
70954;BME280;58618;47.490;8.736;2024-02-26T13:52:54;94730.78;;;11.67;65.34
70954;BME280;58618;47.490;8.736;2024-02-26T13:55:43;94733.16;;;11.27;68.54
70954;BME280;58618;47.490;8.736;2024-02-26T13:58:31;94733.22;;;11.07;70.14
70954;BME280;58618;47.490;8.736;2024-02-26T14:01:18;94734.94;;;11.02;70.25
70954;BME280;58618;47.490;8.736;2024-02-26T14:04:05;94730.88;;;10.81;72.58
70954;BME280;58618;47.490;8.736;2024-02-26T14:06:55;94729.75;;;10.70;74.39
70954;BME280;58618;47.490;8.736;2024-02-26T14:09:43;94728.41;;;10.84;73.53
70954;BME280;58618;47.490;8.736;2024-02-26T14:12:31;94724.81;;;10.97;71.56
70954;BME280;58618;47.490;8.736;2024-02-26T14:15:19;94726.94;;;10.95;73.06
70954;BME280;58618;47.490;8.736;2024-02-26T14:18:06;94717.69;;;10.82;73.31
70954;BME280;58618;47.490;8.736;2024-02-26T14:20:54;94724.66;;;10.82;73.27
70954;BME280;58618;47.490;8.736;2024-02-26T14:23:42;94728.09;;;10.86;73.79
70954;BME280;58618;47.490;8.736;2024-02-26T14:26:32;94728.00;;;10.94;71.97
70954;BME280;58618;47.490;8.736;2024-02-26T14:29:19;94730.25;;;10.84;72.74
70954;BME280;58618;47.490;8.736;2024-02-26T14:32:07;94739.94;;;10.87;72.34
70954;BME280;58618;47.490;8.736;2024-02-26T14:34:56;94737.00;;;10.55;74.47
70954;BME280;58618;47.490;8.736;2024-02-26T14:37:43;94753.91;;;10.65;75.66
70954;BME280;58618;47.490;8.736;2024-02-26T14:40:32;94756.94;;;10.67;74.97
70954;BME280;58618;47.490;8.736;2024-02-26T14:43:21;94758.03;;;10.57;73.76
70954;BME280;58618;47.490;8.736;2024-02-26T14:46:08;94757.81;;;10.50;76.24
70954;BME280;58618;47.490;8.736;2024-02-26T14:48:55;94771.50;;;10.42;77.98
70954;BME280;58618;47.490;8.736;2024-02-26T14:51:44;94768.72;;;10.47;77.59